createdAt,value
2023-03-13T00:03:27.187Z,97524.78
2023-03-13T00:08:30.174Z,97518.72
2023-03-13T00:13:32.337Z,97523.75
2023-03-13T00:18:34.292Z,97528.38
2023-03-13T00:23:38.367Z,97518.22
2023-03-13T00:28:42.061Z,97520.91
2023-03-13T00:33:46.592Z,97532.41
2023-03-13T00:38:48.571Z,97525.13
2023-03-13T00:43:50.836Z,97529.56
2023-03-13T00:48:53.138Z,97534.56
2023-03-13T00:53:56.434Z,97517.34
2023-03-13T00:59:01.517Z,97526.50
2023-03-13T01:04:09.563Z,97518.50
2023-03-13T01:09:17.060Z,97516.44
2023-03-13T01:14:20.632Z,97516.78
2023-03-13T01:19:22.599Z,97512.03
2023-03-13T01:24:24.794Z,97498.03
2023-03-13T01:29:26.774Z,97501.13
2023-03-13T01:34:28.725Z,97491.78
2023-03-13T01:39:30.644Z,97485.19
2023-03-13T01:44:57.148Z,97482.78
2023-03-13T01:50:00.813Z,97479.84
2023-03-13T01:55:17.875Z,97471.78
2023-03-13T02:00:30.171Z,97470.28
2023-03-13T02:05:32.593Z,97467.88
2023-03-13T02:10:42.442Z,97464.66
2023-03-13T02:15:45.405Z,97457.03
2023-03-13T02:20:49.952Z,97451.19
2023-03-13T02:25:56.553Z,97450.69
2023-03-13T02:31:06.596Z,97445.25
2023-03-13T02:36:09.751Z,97444.53
2023-03-13T02:41:13.794Z,97440.28
2023-03-13T02:46:18.828Z,97437.59
2023-03-13T02:51:26.704Z,97439.94
2023-03-13T02:56:33.630Z,97438.50
2023-03-13T03:01:36.160Z,97438.19
2023-03-13T03:06:38.551Z,97440.16
2023-03-13T03:11:40.898Z,97439.84
2023-03-13T03:16:47.558Z,97437.50
2023-03-13T03:21:50.097Z,97416.22
2023-03-13T03:26:54.405Z,97412.38
2023-03-13T03:32:01.639Z,97408.53
2023-03-13T03:37:05.842Z,97390.00
2023-03-13T03:42:09.685Z,97386.41
2023-03-13T03:47:12.760Z,97370.56
2023-03-13T03:52:19.545Z,97365.44
2023-03-13T03:57:21.776Z,97355.84
2023-03-13T04:02:23.894Z,97339.81
2023-03-13T04:07:26.471Z,97326.94
2023-03-13T04:12:29.435Z,97311.78
2023-03-13T04:17:33.565Z,97310.25
2023-03-13T04:22:36.605Z,97299.53
2023-03-13T04:27:38.728Z,97298.47
2023-03-13T04:32:41.943Z,97293.09
2023-03-13T04:37:44.003Z,97289.63
2023-03-13T04:43:09.225Z,97277.66
2023-03-13T04:48:29.855Z,97267.63
2023-03-13T04:53:54.515Z,97259.91
2023-03-13T04:59:06.601Z,97252.97
2023-03-13T05:04:31.551Z,97245.31
2023-03-13T05:09:52.204Z,97231.38
2023-03-13T05:15:12.944Z,97225.22
2023-03-13T05:20:44.464Z,97210.53
2023-03-13T05:26:07.497Z,97204.34
2023-03-13T05:31:45.201Z,97191.22
2023-03-13T05:37:07.599Z,97183.47
2023-03-13T05:42:27.082Z,97162.59
2023-03-13T05:47:36.908Z,97164.56
2023-03-13T05:53:02.087Z,97158.03
2023-03-13T05:58:24.397Z,97148.38
2023-03-13T06:03:43.186Z,97143.00
2023-03-13T06:08:47.311Z,97142.63
2023-03-13T06:13:52.037Z,97123.28
2023-03-13T06:19:01.063Z,97112.09
2023-03-13T06:24:03.100Z,97126.84
2023-03-13T06:29:05.007Z,97116.41
2023-03-13T06:34:07.157Z,97111.78
2023-03-13T06:39:09.980Z,97097.81
2023-03-13T06:44:12.089Z,97093.94
2023-03-13T06:49:14.038Z,97085.38
2023-03-13T06:54:16.125Z,97075.28
2023-03-13T06:59:18.072Z,97072.94
2023-03-13T07:04:20.376Z,97072.94
2023-03-13T07:09:22.354Z,97084.53
2023-03-13T07:14:24.608Z,97059.41
2023-03-13T07:19:27.566Z,97057.50
2023-03-13T07:24:29.579Z,97045.94
2023-03-13T07:29:31.758Z,97033.94
2023-03-13T07:34:33.715Z,97025.03
2023-03-13T07:39:35.682Z,97012.22
2023-03-13T07:44:37.642Z,97014.91
2023-03-13T07:49:42.892Z,96997.88
2023-03-13T07:54:44.857Z,96973.09
2023-03-13T07:59:46.906Z,96975.41
2023-03-13T08:04:53.215Z,96974.59
2023-03-13T08:09:55.153Z,96961.41
2023-03-13T08:14:57.529Z,96983.06
2023-03-13T08:19:59.519Z,96966.09
2023-03-13T08:25:01.438Z,96979.66
2023-03-13T08:30:03.639Z,96980.81
2023-03-13T08:35:06.327Z,96987.00
2023-03-13T08:40:11.782Z,96995.19
2023-03-13T08:45:13.791Z,96994.00
2023-03-13T08:50:15.921Z,96980.88
2023-03-13T08:55:17.997Z,97006.44
2023-03-13T09:00:20.331Z,97031.25
2023-03-13T09:05:22.230Z,96999.47
2023-03-13T09:10:24.186Z,96976.22
2023-03-13T09:15:26.136Z,96969.59
2023-03-13T09:20:28.044Z,96974.22
2023-03-13T09:25:29.944Z,96966.81
2023-03-13T09:30:31.916Z,96979.59
2023-03-13T09:35:34.053Z,96990.47
2023-03-13T09:40:41.325Z,96990.84
2023-03-13T09:45:48.451Z,96988.53
2023-03-13T09:51:19.420Z,96981.94
2023-03-13T09:56:24.721Z,96953.53
2023-03-13T10:01:31.444Z,96950.72
2023-03-13T10:06:41.862Z,96950.16
2023-03-13T10:11:47.958Z,96954.66
2023-03-13T10:17:20.150Z,96946.72
2023-03-13T10:22:26.966Z,96949.78
2023-03-13T10:27:29.023Z,96968.47
2023-03-13T10:32:31.226Z,96926.41
2023-03-13T10:37:41.616Z,96927.50
2023-03-13T10:42:45.178Z,96921.72
2023-03-13T10:47:57.603Z,96914.81
2023-03-13T10:53:19.917Z,96936.00
2023-03-13T10:58:30.677Z,96927.16
2023-03-13T11:03:34.509Z,96919.16
2023-03-13T11:08:37.870Z,96924.91
2023-03-13T11:13:44.221Z,96929.34
2023-03-13T11:19:02.244Z,96929.25
2023-03-13T11:24:13.644Z,96939.38
2023-03-13T11:29:47.725Z,96940.25
2023-03-13T11:34:58.668Z,96946.53
2023-03-13T11:40:26.729Z,96954.94
2023-03-13T11:46:05.601Z,96939.81
2023-03-13T11:51:52.929Z,96942.19
2023-03-13T11:57:00.009Z,96938.28
2023-03-13T12:02:28.016Z,96935.19
2023-03-13T12:07:43.071Z,96929.00
2023-03-13T12:12:52.526Z,96910.38
2023-03-13T12:18:03.111Z,96903.34
2023-03-13T12:23:17.245Z,96898.59
2023-03-13T12:28:33.934Z,96891.50
2023-03-13T12:33:54.337Z,96875.09
2023-03-13T12:39:07.744Z,96862.22
2023-03-13T12:44:18.853Z,96832.13
2023-03-13T12:49:35.298Z,96826.19
2023-03-13T12:54:40.036Z,96821.91
2023-03-13T12:59:44.249Z,96812.28
2023-03-13T13:04:49.688Z,96841.03
2023-03-13T13:10:09.897Z,96826.84
2023-03-13T13:15:27.108Z,96833.97
2023-03-13T13:20:47.457Z,96844.91
2023-03-13T13:25:49.940Z,96836.25
2023-03-13T13:30:55.795Z,96833.78
2023-03-13T13:36:23.279Z,96790.09
2023-03-13T13:41:34.166Z,96800.50
2023-03-13T13:46:36.577Z,96796.78
2023-03-13T13:51:39.874Z,96797.81
2023-03-13T13:56:45.561Z,96792.03
2023-03-13T14:02:10.970Z,96794.59
2023-03-13T14:07:18.877Z,96807.00
2023-03-13T14:12:38.373Z,96824.34
2023-03-13T14:17:48.173Z,96830.84
2023-03-13T14:22:51.465Z,96818.19
2023-03-13T14:27:54.928Z,96800.88
2023-03-13T14:32:56.901Z,96792.13
2023-03-13T14:38:02.883Z,96782.31
2023-03-13T14:43:05.267Z,96769.63
2023-03-13T14:48:34.354Z,96762.78
2023-03-13T14:53:36.614Z,96778.19
2023-03-13T14:58:38.576Z,96776.94
2023-03-13T15:03:48.645Z,96774.38
2023-03-13T15:09:19.933Z,96769.00
2023-03-13T15:14:41.942Z,96767.28
2023-03-13T15:19:48.860Z,96777.03
2023-03-13T15:25:05.012Z,96771.66
2023-03-13T15:30:07.936Z,96747.09
2023-03-13T15:35:32.637Z,96746.78
2023-03-13T15:40:34.681Z,96747.69
2023-03-13T15:45:38.856Z,96754.03
2023-03-13T15:50:40.752Z,96723.00
2023-03-13T15:55:50.272Z,96696.66
2023-03-13T16:00:52.881Z,96673.06
2023-03-13T16:05:56.607Z,96685.88
2023-03-13T16:10:58.686Z,96677.66
2023-03-13T16:16:00.785Z,96666.75
2023-03-13T16:21:02.780Z,96653.69
2023-03-13T16:26:12.805Z,96638.91
2023-03-13T16:31:27.760Z,96624.22
2023-03-13T16:36:32.029Z,96626.13
2023-03-13T16:41:34.078Z,96622.34
2023-03-13T16:46:43.306Z,96612.28
2023-03-13T16:51:47.986Z,96616.41
2023-03-13T16:56:49.858Z,96601.09
2023-03-13T17:01:52.431Z,96598.13
2023-03-13T17:06:54.277Z,96586.66
2023-03-13T17:11:56.103Z,96581.38
2023-03-13T17:16:58.056Z,96590.38
2023-03-13T17:21:59.875Z,96583.31
2023-03-13T17:27:01.731Z,96570.84
2023-03-13T17:32:04.247Z,96578.28
2023-03-13T17:37:15.623Z,96574.75
2023-03-13T17:42:18.785Z,96567.75
2023-03-13T17:47:24.415Z,96562.91
2023-03-13T17:52:26.764Z,96565.22
2023-03-13T17:57:29.059Z,96549.97
2023-03-13T18:02:31.648Z,96554.56
2023-03-13T18:07:35.660Z,96544.50
2023-03-13T18:12:37.998Z,96546.31
2023-03-13T18:17:40.965Z,96527.84
2023-03-13T18:22:43.395Z,96527.59
2023-03-13T18:27:46.028Z,96527.25
2023-03-13T18:32:48.685Z,96514.53
2023-03-13T18:37:50.628Z,96513.06
2023-03-13T18:42:52.547Z,96507.63
2023-03-13T18:47:54.879Z,96502.00
2023-03-13T18:52:58.921Z,96488.66
2023-03-13T18:58:01.096Z,96480.75
2023-03-13T19:03:03.079Z,96487.56
2023-03-13T19:08:05.041Z,96483.66
2023-03-13T19:13:06.973Z,96479.75
2023-03-13T19:18:11.834Z,96476.25
2023-03-13T19:23:13.801Z,96488.38
2023-03-13T19:28:15.860Z,96528.00
2023-03-13T19:33:18.277Z,96588.00
2023-03-13T19:38:20.404Z,96690.97
2023-03-13T19:43:22.332Z,96660.56
2023-03-13T19:48:24.374Z,96658.72
2023-03-13T19:53:26.221Z,96654.81
2023-03-13T19:58:28.154Z,96624.81
2023-03-13T20:03:30.107Z,96614.25
2023-03-13T20:08:32.030Z,96595.13
2023-03-13T20:13:33.951Z,96591.06
2023-03-13T20:18:35.870Z,96579.63
2023-03-13T20:23:37.761Z,96566.69
2023-03-13T20:28:42.377Z,96553.72
2023-03-13T20:33:44.238Z,96539.06
2023-03-13T20:38:46.541Z,96505.69
2023-03-13T20:43:48.402Z,96502.16
2023-03-13T20:48:50.376Z,96467.56
2023-03-13T20:53:52.206Z,96463.72
2023-03-13T20:58:54.061Z,96455.97
2023-03-13T21:03:55.893Z,96445.94
2023-03-13T21:08:57.720Z,96431.97
2023-03-13T21:13:59.544Z,96440.50
2023-03-13T21:19:01.463Z,96440.91
2023-03-13T21:24:03.671Z,96453.53
2023-03-13T21:29:06.305Z,96455.97
2023-03-13T21:34:08.691Z,96446.66
2023-03-13T21:39:12.155Z,96419.47
2023-03-13T21:44:15.913Z,96410.22
2023-03-13T21:49:17.875Z,96400.28
2023-03-13T21:54:19.676Z,96410.66
2023-03-13T21:59:26.355Z,96411.59
2023-03-13T22:04:28.205Z,96409.34
2023-03-13T22:09:30.026Z,96428.13
2023-03-13T22:14:31.874Z,96434.97
2023-03-13T22:19:34.393Z,96462.50
2023-03-13T22:24:36.336Z,96481.63
2023-03-13T22:29:38.202Z,96456.00
2023-03-13T22:34:44.982Z,96439.84
2023-03-13T22:39:46.868Z,96439.84
2023-03-13T22:44:48.733Z,96446.84
2023-03-13T22:49:50.687Z,96476.78
2023-03-13T22:54:52.510Z,96493.94
2023-03-13T22:59:54.605Z,96495.22
2023-03-13T23:04:58.622Z,96503.72
2023-03-13T23:10:00.539Z,96489.78
2023-03-13T23:15:02.402Z,96479.81
2023-03-13T23:20:13.246Z,96468.56
2023-03-13T23:25:15.908Z,96450.28
2023-03-13T23:30:18.746Z,96426.56
2023-03-13T23:35:20.768Z,96400.44
2023-03-13T23:40:23.836Z,96366.19
2023-03-13T23:45:25.728Z,96338.13
2023-03-13T23:50:27.786Z,96287.63
2023-03-13T23:55:29.637Z,96188.19
